Аэропорт: Домодедово. Москва

ICAO: UUDD

METAR:
2021-10-23 01:30:00
UUDD 230130Z 22006MPS CAVOK 06/M01 Q1002 R32L/CLRD60 NOSIG
METAR:
2021-10-22 22:52:00
TAF UUDD 222252Z 2300/2406 23007MPS 9999 SCT020 TX08/2311Z TN03/2303Z TEMPO 2306/2316 26010G17MPS -SHRA BKN016CB TEMPO 2321/2406 -SHSNRA FEW005 BKN016CB BECMG 2400/2402 29005MPS